createdAt,value
2022-12-19T00:03:22.725Z,-1.70
2022-12-19T00:08:25.712Z,-1.60
2022-12-19T00:13:31.153Z,-1.50
2022-12-19T00:18:37.446Z,-1.40
2022-12-19T00:23:40.337Z,-1.40
2022-12-19T00:28:46.108Z,-1.30
2022-12-19T00:33:50.754Z,-1.30
2022-12-19T00:38:55.206Z,-1.30
2022-12-19T00:44:02.337Z,-1.30
2022-12-19T00:49:07.845Z,-1.20
2022-12-19T00:54:11.829Z,-1.20
2022-12-19T00:59:18.068Z,-1.10
2022-12-19T01:04:30.381Z,-1.00
2022-12-19T01:09:36.279Z,-0.90
2022-12-19T01:14:40.590Z,-0.90
2022-12-19T01:19:44.795Z,-0.90
2022-12-19T01:24:48.734Z,-1.20
2022-12-19T01:29:53.223Z,-1.10
2022-12-19T01:34:56.231Z,-0.90
2022-12-19T01:39:59.101Z,-0.80
2022-12-19T01:45:33.846Z,-0.80
2022-12-19T01:50:41.817Z,-0.90
2022-12-19T01:55:57.034Z,-1.10
2022-12-19T02:01:01.338Z,-0.90
2022-12-19T02:06:06.395Z,-0.80
2022-12-19T02:11:09.910Z,-0.60
2022-12-19T02:16:25.968Z,-0.70
2022-12-19T02:21:46.015Z,-0.60
2022-12-19T02:27:07.372Z,-0.50
2022-12-19T02:32:19.221Z,-0.40
2022-12-19T02:37:32.347Z,-0.40
2022-12-19T02:42:44.656Z,-0.30
2022-12-19T02:47:49.911Z,-0.30
2022-12-19T02:52:52.924Z,-0.30
2022-12-19T02:58:37.617Z,-0.30
2022-12-19T03:03:54.364Z,-0.20
2022-12-19T03:09:04.316Z,-0.20
2022-12-19T03:14:10.787Z,-0.10
2022-12-19T03:19:17.175Z,-0.20
2022-12-19T03:24:21.366Z,-0.20
2022-12-19T03:29:29.423Z,-0.10
2022-12-19T03:34:39.656Z,0.10
2022-12-19T03:39:46.877Z,-0.10
2022-12-19T03:44:51.798Z,0.00
2022-12-19T03:49:56.306Z,0.10
2022-12-19T03:55:13.693Z,0.20
2022-12-19T04:00:18.733Z,0.30
2022-12-19T04:05:25.898Z,0.30
2022-12-19T04:10:29.975Z,0.40
2022-12-19T04:15:38.468Z,0.40
2022-12-19T04:20:50.595Z,0.30
2022-12-19T04:25:58.644Z,0.20
2022-12-19T04:31:02.437Z,0.10
2022-12-19T04:36:07.425Z,0.20
2022-12-19T04:41:10.686Z,0.40
2022-12-19T04:46:13.586Z,0.60
2022-12-19T04:51:18.455Z,0.50
2022-12-19T04:56:21.361Z,0.60
2022-12-19T05:01:30.304Z,0.60
2022-12-19T05:06:34.545Z,0.70
2022-12-19T05:11:37.665Z,0.80
2022-12-19T05:16:40.509Z,0.90
2022-12-19T05:21:45.399Z,0.90
2022-12-19T05:26:49.256Z,0.90
2022-12-19T05:31:52.104Z,1.10
2022-12-19T05:36:56.309Z,1.10
2022-12-19T05:41:59.632Z,1.00
2022-12-19T05:47:03.064Z,4.20
2022-12-19T05:52:07.326Z,3.30
2022-12-19T05:57:10.337Z,2.40
2022-12-19T06:02:13.336Z,2.10
2022-12-19T06:07:20.934Z,2.00
2022-12-19T06:12:24.581Z,2.00
2022-12-19T06:17:27.532Z,1.90
2022-12-19T06:22:31.738Z,2.00
2022-12-19T06:27:34.829Z,2.00
2022-12-19T06:32:38.477Z,1.80
2022-12-19T06:37:42.772Z,1.70
2022-12-19T06:42:48.312Z,1.80
2022-12-19T06:47:51.175Z,1.90
2022-12-19T06:52:55.385Z,1.90
2022-12-19T06:57:58.443Z,1.80
2022-12-19T07:03:05.192Z,1.70
2022-12-19T07:08:10.163Z,1.80
2022-12-19T07:13:13.023Z,1.90
2022-12-19T07:18:16.256Z,1.90
2022-12-19T07:23:23.058Z,1.90
2022-12-19T07:28:26.366Z,2.00
2022-12-19T07:33:29.241Z,2.00
2022-12-19T07:38:33.475Z,2.10
2022-12-19T07:43:36.357Z,2.10
2022-12-19T07:48:39.250Z,2.10
2022-12-19T07:53:43.468Z,2.00
2022-12-19T07:58:46.317Z,1.80
2022-12-19T08:03:49.188Z,1.90
2022-12-19T08:08:53.396Z,2.00
2022-12-19T08:13:56.440Z,1.90
2022-12-19T08:19:00.413Z,1.90
2022-12-19T08:24:04.953Z,2.20
2022-12-19T08:29:07.862Z,2.40
2022-12-19T08:34:10.701Z,2.30
2022-12-19T08:39:14.972Z,2.40
2022-12-19T08:44:17.855Z,2.40
2022-12-19T08:49:21.308Z,2.70
2022-12-19T08:54:27.080Z,2.70
2022-12-19T08:59:31.218Z,2.60
2022-12-19T09:05:59.607Z,2.80
2022-12-19T09:10:01.943Z,2.90
2022-12-19T09:15:05.405Z,2.80
2022-12-19T09:20:10.723Z,2.90
2022-12-19T09:25:15.119Z,3.10
2022-12-19T09:30:18.115Z,3.20
2022-12-19T09:35:24.462Z,3.30
2022-12-19T09:40:45.537Z,3.30
2022-12-19T09:45:58.767Z,3.50
2022-12-19T09:51:10.576Z,3.60
2022-12-19T09:56:16.915Z,3.70
2022-12-19T10:01:23.207Z,3.80
2022-12-19T10:07:20.569Z,3.80
2022-12-19T10:12:44.327Z,3.70
2022-12-19T10:17:38.937Z,3.80
2022-12-19T10:22:52.235Z,4.00
2022-12-19T10:28:01.641Z,4.20
2022-12-19T10:33:20.289Z,4.20
2022-12-19T10:38:30.005Z,4.40
2022-12-19T10:43:44.423Z,4.40
2022-12-19T10:48:49.445Z,4.60
2022-12-19T10:53:55.624Z,4.70
2022-12-19T10:59:01.333Z,4.90
2022-12-19T11:04:19.666Z,5.00
2022-12-19T11:09:30.764Z,4.90
2022-12-19T11:18:50.884Z,5.10
2022-12-19T11:29:44.238Z,5.20
2022-12-19T11:30:45.508Z,5.20
2022-12-19T11:36:33.190Z,5.40
2022-12-19T11:41:41.986Z,5.50
2022-12-19T11:46:50.635Z,5.50
2022-12-19T11:51:57.405Z,5.60
2022-12-19T11:57:00.709Z,5.60
2022-12-19T12:02:25.220Z,5.70
2022-12-19T12:08:54.354Z,5.60
2022-12-19T12:22:34.755Z,5.70
2022-12-19T12:31:00.803Z,5.70
2022-12-19T12:31:39.473Z,5.90
2022-12-19T12:31:41.876Z,5.70
2022-12-19T12:37:52.434Z,5.90
2022-12-19T12:41:10.604Z,5.90
2022-12-19T12:46:17.230Z,6.10
2022-12-19T12:51:22.653Z,6.10
2022-12-19T12:56:25.909Z,6.10
2022-12-19T13:01:35.462Z,6.10
2022-12-19T13:06:41.781Z,6.10
2022-12-19T13:12:06.366Z,6.00
2022-12-19T13:17:10.192Z,6.00
2022-12-19T13:22:41.291Z,6.10
2022-12-19T13:27:49.389Z,6.10
2022-12-19T13:33:10.145Z,6.10
2022-12-19T13:39:57.819Z,6.20
2022-12-19T13:43:49.925Z,6.10
2022-12-19T13:48:57.116Z,6.10
2022-12-19T13:54:01.305Z,6.10
2022-12-19T13:59:07.040Z,6.10
2022-12-19T14:04:13.319Z,6.00
2022-12-19T14:11:25.656Z,6.10
2022-12-19T14:15:12.909Z,5.90
2022-12-19T14:22:02.429Z,6.00
2022-12-19T14:28:14.981Z,6.10
2022-12-19T14:31:15.599Z,6.10
2022-12-19T14:36:26.194Z,6.10
2022-12-19T14:42:02.439Z,6.00
2022-12-19T14:54:10.729Z,5.90
2022-12-19T14:54:21.296Z,5.60
2022-12-19T14:58:53.971Z,5.60
2022-12-19T15:04:01.078Z,5.60
2022-12-19T15:10:59.577Z,5.60
2022-12-19T15:14:54.652Z,5.50
2022-12-19T15:20:01.345Z,5.50
2022-12-19T15:25:04.422Z,5.50
2022-12-19T15:30:15.988Z,5.50
2022-12-19T15:35:19.737Z,5.40
2022-12-19T15:40:22.645Z,5.30
2022-12-19T15:45:27.341Z,5.00
2022-12-19T15:50:32.244Z,5.20
2022-12-19T15:55:37.041Z,5.20
2022-12-19T16:00:43.848Z,5.20
2022-12-19T16:05:47.272Z,5.30
2022-12-19T16:11:01.142Z,5.10
2022-12-19T16:16:15.075Z,5.20
2022-12-19T16:21:23.592Z,5.10
2022-12-19T16:26:34.139Z,5.10
2022-12-19T16:31:38.396Z,4.70
2022-12-19T16:36:41.274Z,4.90
2022-12-19T16:41:45.057Z,4.90
2022-12-19T16:46:51.770Z,4.90
2022-12-19T16:51:54.708Z,4.90
2022-12-19T16:56:57.755Z,5.10
2022-12-19T17:02:03.290Z,5.00
2022-12-19T17:07:10.900Z,5.00
2022-12-19T17:12:18.929Z,5.00
2022-12-19T17:17:23.200Z,5.00
2022-12-19T17:22:26.144Z,5.10
2022-12-19T17:27:30.066Z,5.10
2022-12-19T17:32:34.452Z,5.20
2022-12-19T17:37:37.419Z,5.20
2022-12-19T17:42:40.346Z,5.20
2022-12-19T17:47:45.959Z,5.30
2022-12-19T17:52:49.705Z,5.50
2022-12-19T17:57:53.076Z,5.50
2022-12-19T18:02:57.924Z,5.50
2022-12-19T18:08:01.016Z,5.40
2022-12-19T18:13:05.499Z,5.40
2022-12-19T18:18:14.306Z,5.50
2022-12-19T18:23:19.149Z,5.50
2022-12-19T18:28:22.064Z,5.40
2022-12-19T18:33:26.465Z,5.60
2022-12-19T18:38:29.432Z,5.60
2022-12-19T18:43:32.717Z,5.60
2022-12-19T18:48:38.587Z,5.60
2022-12-19T18:53:41.681Z,5.70
2022-12-19T18:58:51.661Z,5.50
2022-12-19T19:03:59.155Z,5.40
2022-12-19T19:09:03.516Z,5.50
2022-12-19T19:14:25.324Z,5.60
2022-12-19T19:19:29.532Z,5.70
2022-12-19T19:24:32.384Z,5.70
2022-12-19T19:29:35.268Z,5.80
2022-12-19T19:34:41.572Z,5.50
2022-12-19T19:39:44.894Z,5.50
2022-12-19T19:44:47.746Z,5.40
2022-12-19T19:49:51.941Z,5.30
2022-12-19T19:54:54.988Z,5.50
2022-12-19T19:59:57.915Z,5.60
2022-12-19T20:05:02.135Z,5.60
2022-12-19T20:10:08.033Z,5.50
2022-12-19T20:15:17.018Z,5.10
2022-12-19T20:20:23.113Z,5.20
2022-12-19T20:25:25.982Z,5.00
2022-12-19T20:30:28.843Z,5.00
2022-12-19T20:35:33.114Z,4.90
2022-12-19T20:40:35.993Z,5.00
2022-12-19T20:45:38.882Z,5.00
2022-12-19T20:50:43.541Z,5.20
2022-12-19T20:55:57.633Z,5.30
2022-12-19T21:01:06.216Z,5.20
2022-12-19T21:06:12.488Z,5.30
2022-12-19T21:11:16.401Z,5.30
2022-12-19T21:16:21.558Z,5.30
2022-12-19T21:21:27.421Z,5.30
2022-12-19T21:26:30.389Z,5.30
2022-12-19T21:31:33.309Z,4.90
2022-12-19T21:36:38.513Z,4.90
2022-12-19T21:41:43.440Z,5.00
2022-12-19T21:46:46.368Z,5.10
2022-12-19T21:51:50.629Z,5.20
2022-12-19T21:56:53.502Z,5.20
2022-12-19T22:01:56.548Z,5.20
2022-12-19T22:07:00.813Z,5.30
2022-12-19T22:12:03.664Z,5.40
2022-12-19T22:17:06.532Z,5.00
2022-12-19T22:22:10.753Z,5.20
2022-12-19T22:27:13.608Z,5.30
2022-12-19T22:32:17.586Z,5.30
2022-12-19T22:37:21.878Z,5.40
2022-12-19T22:42:24.795Z,5.50
2022-12-19T22:47:27.679Z,5.60
2022-12-19T22:52:31.893Z,5.40
2022-12-19T22:57:35.025Z,5.20
2022-12-19T23:02:39.990Z,5.10
2022-12-19T23:07:45.311Z,5.30
2022-12-19T23:12:48.200Z,5.30
2022-12-19T23:17:51.093Z,5.30
2022-12-19T23:22:55.322Z,5.50
2022-12-19T23:27:58.559Z,5.50
2022-12-19T23:33:01.768Z,5.60
2022-12-19T23:38:05.980Z,5.60
2022-12-19T23:43:08.836Z,5.60
2022-12-19T23:48:11.699Z,5.80
2022-12-19T23:53:15.908Z,5.90
2022-12-19T23:58:24.155Z,5.10
